首页
METAR-TAF:

METAR-TAF

机场 :

基什岛, 伊朗

纬度: 26-31-36N, 经度: 053-58-54E, 海拔: 30米

当前天气观测

该预报发布于10分钟前的09:00 UTC
风速10节,风向西
温度 35°C
湿度 63%
气压 1013 hPa
能見度: 5000

METAR: OIBK 170900Z 26010KT 5000 HZ NSC 35/27 Q1013

时间: 12:40 (09:10 UTC)

预报

该预报发布于3小时和40分钟前的05:30 UTC
预报有效从17日的 06点(UTC)到 18日的 12点(UTC)
风速8节,风向北转西北
能見度: 8000
少量云层高于4000英尺

TAF: OIBK 170530Z 1706/1812 34008KT 8000 FEW040

超过4000个机场的气象观测和天气预报(METAR&TAF报告)。

可查询的气象台以黄色和红色小点在地图上表示。

将鼠标移到小点上方,可查看气象台名称。

然后点击查看天气观测和预报。

如需切换地图:点击带黑十字的绿色按钮放大地图;点击带横线的绿色按钮缩小地图;或者点击绿色箭头查看邻近地区的地图。


METAR-TAF: